Weather at Alekso Demniveski - Bauman Military Base Heliport

Public forecast

Using degrees Celsius for public forecast. Weather courtesy of forecast.io.

Closest aviation weather report (METAR) to Alekso Demniveski - Bauman Military Base Heliport

Closest report is Skopje International Airport, 15.9 nm (29.5 km) NNW.

2024/05/24 00:50 (retrieved 16 minutes ago)

LWSK 240050Z VRB02KT CAVOK 11/11 Q1018 NOSIG

Closest aviation forecast (TAF) to Alekso Demniveski - Bauman Military Base Heliport

Forecast is more than 6 hours old.

Closest forecast is Kuk√ęs International Airport, 63.2 nm (117.0 km) WNW.

2024/05/23 18:00 Ammendment (retrieved 7 hours ago)

TAF AMD LAKU 231900Z 2318/2418 CNL